Listado único de aspirantes (Periodo de valoración 31 octubre de 2019)


* Listado ordenado por Apellidos, Nombre. Recuerde que también puede ordenarlo por el Total Autobaremo

Listado único de aspirantes admitidos en promoción interna en la bolsa de selección de personal estatutario temporal, categoría: Técnico Especialista Dietética y Nutrición
Apellidos, Nombre Exp. SAS Auto. Exp. NO SAS Auto. Form. Auto. otros méritos Total Auto. Exp. SAS Baremo Exp. NO SAS Baremo Form. Baremo Otros méritos Punt. Total Baremo Fecha Act.
AGUDO ROSELL, MªENCARNACION 7,800 0,000 25,000 3,000 35,800 7,800 0,000 25,000 3,000 35,800 09/07/2020
AGUILAR DIAZ, M.PALMIRA 7,200 0,000 0,000 0,000 7,200 7,200 0,000 0,000 0,000 7,200 09/07/2020
AGUILERA TERRONES, MARIA DEL CARMEN 12,900 0,000 25,000 3,000 40,900 12,900 0,000 14,000 3,000 29,900 09/07/2020
ALCAIDE MORAL, TERESA 6,000 0,000 25,000 0,000 31,000 6,000 0,000 0,875 0,000 6,875 09/07/2020
ALVAREZ LOPEZ, PIEDAD 1,100 6,000 25,000 0,000 31,000 1,100 6,000 12,450 0,000 18,450 09/07/2020
AVALOS PÈREZ, ANA 6,000 0,400 25,000 0,000 31,000 6,000 0,000 0,475 0,000 6,475 09/07/2020
BADILLO MAZO, MARIA DEL ROCIO 6,900 0,000 25,000 3,000 34,900 6,900 0,000 10,250 3,000 20,150 09/07/2020
BARRIOS BERROCAL, MARIA DE GRACIA 6,600 0,000 25,000 3,000 34,600 6,600 0,000 25,000 3,000 34,600 09/07/2020
BERMUDO WIC, MARIA JOSEFA 6,000 0,000 24,150 0,000 30,150 6,000 0,000 13,025 0,000 19,025 09/07/2020
BLANCO FERNANDEZ, MARIA DEL CARMEN 6,000 0,000 25,000 0,000 31,000 6,000 0,000 25,000 0,000 31,000 09/07/2020
CABRERA CARNEIRO, ANTONIA 6,000 0,000 29,000 3,000 38,000 6,000 0,000 14,000 3,000 23,000 09/07/2020
CABRERA JIMENEZ, DULCENOMBRE DE MARIA 50,400 0,450 25,000 6,050 81,450 50,400 0,450 25,000 6,000 81,400 09/07/2020
CARMONA RODRÍGUEZ, DOLORES MARÍA 6,300 0,600 29,000 6,150 42,050 6,300 0,000 25,000 6,000 37,300 09/07/2020
CARRASCO RUIZ, CRISTÓBAL JAVIER 6,000 0,000 24,675 0,000 30,675 6,000 0,000 0,000 0,000 6,000 09/07/2020
CHICA ORTEGA, ANA 6,600 0,950 25,000 0,000 31,600 6,600 0,950 7,650 0,000 14,250 09/07/2020
COBO SANCHEZ, MARIA DEL CARMEN 6,000 0,000 25,000 0,000 31,000 6,000 0,000 25,000 0,000 31,000 09/07/2020
CRUZ BARRANCO, ANA MARIA 6,300 0,000 25,000 0,550 31,850 6,300 0,000 0,300 0,450 7,050 09/07/2020
CUETO LOPEZ, ANA Mª 6,000 0,000 8,275 0,000 14,275 6,000 0,000 0,000 0,000 6,000 09/07/2020
FALCON RUIZ, CARMEN 41,100 0,000 25,000 6,175 72,275 41,100 0,000 25,000 6,050 72,150 09/07/2020
FERNANDEZ OLIVERO, MARIA JOSE 6,000 0,000 6,250 0,000 12,250 6,000 0,000 0,000 0,000 6,000 09/07/2020
FRIAS ANDRADES, MARIA DE CONSOLACION 6,900 0,000 29,000 3,000 38,900 6,900 0,000 25,000 3,000 34,900 09/07/2020
GALÁN GARCÍA, Mª DOLORES 6,000 0,000 29,000 0,000 35,000 6,000 0,000 25,000 0,000 31,000 09/07/2020
GARCIA GARCIA, MANUELA 10,500 0,000 25,000 3,000 38,500 10,500 0,000 14,525 3,000 28,025 09/07/2020
GARCIA MARTINEZ, SEVERINA 6,000 0,800 12,775 0,000 18,775 6,000 0,800 0,000 0,000 6,000 09/07/2020
GAVIÑO COLON, MARIA MERCEDES 6,000 0,000 8,000 3,000 17,000 6,000 0,000 0,000 3,000 9,000 09/07/2020
GIL MORRUGARES, ANTONIA 6,300 0,000 19,900 3,000 29,200 6,300 0,000 8,400 3,000 17,700 09/07/2020
GOMEZ SANCHEZ, JUAN JOSE 6,000 0,000 29,000 3,000 38,000 6,000 0,000 2,600 3,000 11,600 09/07/2020
GONZALEZ CAÑADAS, IRENE 7,500 2,050 22,925 0,000 30,425 7,500 2,050 15,825 0,000 23,325 09/07/2020
HERNANDEZ MESA, Mª CARMEN 5,200 0,000 25,000 0,000 30,200 5,200 0,000 8,750 0,000 13,950 09/07/2020
HERNANDEZ RUBIO, ANA MARIA 6,000 0,000 29,000 0,000 35,000 6,000 0,000 29,000 0,000 35,000 09/07/2020
HERREZUELO FERNANDEZ, BELEN 6,000 0,000 8,125 6,000 20,125 6,000 0,000 0,500 6,000 12,500 09/07/2020
HIDALGO MORENTE, FILOMENA 7,500 0,900 25,000 3,050 36,450 7,500 0,000 24,800 3,000 35,300 09/07/2020
JANEIRO CARVAJAL, JUANA MARIA 6,000 0,000 25,000 3,000 34,000 6,000 0,000 22,025 3,000 31,025 09/07/2020
JIMENEZ ARROYO, Mª DEL VALLE 6,000 0,000 25,000 3,050 34,050 6,000 0,000 2,025 3,000 11,025 09/07/2020
JIMENEZ NAHARRO, ROSARIO 6,000 0,000 25,000 0,000 31,000 6,000 0,000 14,825 0,000 20,825 09/07/2020
JIMENEZ PUERTAS, JUAN 9,900 0,000 25,000 3,000 37,900 9,900 0,000 12,900 3,000 25,800 09/07/2020
LASAGA LOZANO, ISIDRO 18,900 0,000 29,000 3,000 50,900 18,900 0,000 20,000 3,000 41,900 09/07/2020
MARQUEZ FERNANDEZ, PALOMA 4,700 5,550 4,000 0,000 10,000 4,700 5,450 0,000 0,000 6,000 09/07/2020
MARTINEZ MEGIAS, FRANCISCO JAVIER 6,000 1,250 25,000 0,000 31,000 6,000 0,000 9,500 0,000 15,500 09/07/2020
MARTOS GARCIA, RAFAELA 6,000 0,000 25,000 0,000 31,000 6,000 0,000 6,450 0,000 12,450 09/07/2020
MELENDEZ GALVEZ, CARMEN 6,000 0,000 29,000 0,000 35,000 6,000 0,000 29,000 0,000 35,000 09/07/2020
MILLA NUÑEZ, CARMEN 8,100 0,000 25,000 6,000 39,100 8,100 0,000 22,025 6,000 36,125 09/07/2020
MILLAN FERNANDEZ, MARIA DEL CARMEN 6,000 0,000 27,225 0,000 33,225 6,000 0,000 2,500 0,000 8,500 09/07/2020
MONTILLA MORENO, PURIFICACION 6,600 0,000 25,000 3,125 34,725 6,600 0,000 10,750 3,100 20,450 09/07/2020
MORENO AGUILAR, DOLORES 6,000 0,000 25,000 0,000 31,000 6,000 0,000 0,000 0,000 6,000 09/07/2020
MORENTE LAINA, CONCEPCION 6,000 0,550 29,000 0,000 35,000 6,000 0,550 8,000 0,000 14,000 09/07/2020
ORTEGA ARREBOLA, DOLORES 6,000 0,000 25,000 0,000 31,000 6,000 0,000 0,875 0,000 6,875 09/07/2020
PÉREZ DÍAZ, EMILIA 6,000 0,000 19,200 0,000 25,200 6,000 0,000 1,175 0,000 7,175 09/07/2020
PEREZ TORRES, EVA MARIA 6,300 0,000 29,000 0,000 35,300 6,300 0,000 22,100 0,000 28,400 09/07/2020
PICAZO RODRÍGUEZ, ANA MARÍA 17,100 0,000 29,000 6,000 52,100 17,100 0,000 23,275 6,000 46,375 09/07/2020
PINTO HIERRO, MARGARITA 47,100 0,000 25,000 3,000 75,100 47,100 0,000 13,000 3,000 63,100 09/07/2020
RAMIREZ CUESTA, LUCIA 9,600 0,000 25,000 3,000 37,600 9,600 0,000 4,225 3,000 16,825 09/07/2020
RAMOS GÓMEZ, DOLORES 7,500 0,000 25,000 3,000 35,500 7,500 0,000 25,000 3,000 35,500 09/07/2020
RÍOS LÓPEZ, CRISTINA 5,750 0,000 29,000 0,000 34,750 5,750 0,000 29,000 0,000 34,750 09/07/2020
RIVERO CRUJEIRAS, JOSE MANUEL 6,000 0,000 7,000 0,000 13,000 6,000 0,000 0,000 0,000 6,000 09/07/2020
RODRIGUEZ AGUILAR, MANUELA 6,600 0,000 25,000 3,000 34,600 6,600 0,000 13,000 3,000 22,600 09/07/2020
RODRIGUEZ JIMENEZ, JOSEFA 6,000 0,000 25,000 3,000 34,000 6,000 0,000 7,400 3,000 16,400 09/07/2020
RODRÍGUEZ JIMÉNEZ, MARÍA 6,000 0,000 25,000 3,000 34,000 6,000 0,000 9,300 3,000 18,300 09/07/2020
RODRIGUEZ MORENO, ANA MARIA 6,000 0,000 25,300 0,000 31,300 6,000 0,000 9,250 0,000 15,250 09/07/2020
RODRIGUEZ VAZQUEZ, CARMEN 6,000 0,000 33,000 0,000 39,000 6,000 0,000 33,000 0,000 39,000 09/07/2020
ROMERO MONROY, MARIA DE LOS SANTOS 8,700 0,350 25,000 3,000 36,700 8,700 0,350 16,750 3,000 28,450 09/07/2020
RUIZ CORDOBA, YOLANDA 10,200 0,200 25,000 0,000 35,200 10,200 0,000 18,300 0,000 28,500 09/07/2020
RUIZ ROMERO, MERCEDES 6,000 0,000 29,000 0,000 35,000 6,000 0,000 1,250 0,000 7,250 09/07/2020
SALAS MOLINA, NIEVES 6,000 0,400 28,275 0,000 34,275 6,000 0,400 13,175 0,000 19,175 09/07/2020
SEGURA MONTESINOS, ANA 8,100 1,250 25,000 7,525 40,625 8,100 1,250 25,000 6,000 39,100 09/07/2020
SIGUEIRO SALINAS, MARÍA DEL CARMEN 6,600 1,450 25,000 3,450 35,050 6,600 1,450 22,625 3,050 32,275 09/07/2020
TALAVERON GUERRERO, M MERCEDES 6,000 0,000 25,000 3,000 34,000 6,000 0,000 23,900 3,000 32,900 09/07/2020
TEJERO CHAMORRO, MANUEL JESUS 6,000 0,000 23,275 0,000 29,275 6,000 0,000 2,800 0,000 8,800 09/07/2020
TOLEDANO PADILLA, FRANCISCA 14,100 0,450 25,000 0,450 39,550 14,100 0,000 25,000 0,450 39,550 09/07/2020
TORREGROSA DÍAZ, ROSA MARÍA 6,000 0,000 6,900 0,000 12,900 6,000 0,000 0,075 0,000 6,075 09/07/2020
TRENADO MADRID, Mª CARMEN 6,000 1,550 1,250 0,000 7,250 6,000 0,000 0,000 0,000 6,000 09/07/2020
VÁZQUEZ LIMÓN, MANUELA 8,100 0,800 33,000 3,000 44,100 8,100 0,800 4,475 3,000 15,575 09/07/2020
WALS SECILLA, ANTONIA 6,000 0,000 25,000 0,000 31,000 6,000 0,000 25,000 0,000 31,000 09/07/2020

* Los candidatos marcados con un asterisco no alcanzan la nota mínima exigida una vez baremados


Color de candidatos/as que por autobaremo alcanzan puntuación mínima para formar parte de la bolsa Candidatos/as que por autobaremo alcanzan puntuación mínima para formar parte de la bolsa

Color de Candidatos/as que no alcanzan puntuación mínima para formar parte de la bolsa Candidatos/as que no alcanzan puntuación mínima para formar parte de la bolsa



[Volver]